KEDU

University Airport

Davis, California, USA
METAR KEDU 170755Z AUTO 33016G25KT 10SM CLR 12/M09 A2999 RMK AO1
Observed Flight Rules
Dec-17 @ 07:55 UTC (23 minutes ago) Visual Flight Rules
Wind Visibility Clouds
330° at 16 knots
 Gusting to 25 knots
10 miles
  • Clear skies
Temperatures Readings
Current 12°C / 54°F
Dewpoint -9°C / 16°F
Humidity 22%
Altimeter 29.99" Hg
Pressure 1016 hPa
Elevation 21
METAR KEDU 170755Z AUTO 33016G25KT 10SM CLR 12/M09 A2999 RMK AO1
Observed Flight Rules
Dec-17 @ 07:55 UTC
(23 minutes ago)
VFR
Wind Visibility
330° at 16 knots
 Gusting to 25 knots
10 miles
Clouds
  • Clear skies
Temperature Dewpoint
12°C / 54°F -9°C / 16°F
Humidity Altimeter Pressure
22% 29.99" Hg 1016 hPa